sensor_id;sensor_type;location;lat;lon;timestamp;pressure;altitude;pressure_sealevel;temperature;humidity
46392;BME280;32098;49.448;7.904;2024-02-26T00:01:04;96222.78;;;7.69;61.30
46392;BME280;32098;49.448;7.904;2024-02-26T00:03:31;96230.78;;;7.74;60.92
46392;BME280;32098;49.448;7.904;2024-02-26T00:06:03;96227.06;;;7.75;60.78
46392;BME280;32098;49.448;7.904;2024-02-26T00:08:30;96235.56;;;7.77;60.94
46392;BME280;32098;49.448;7.904;2024-02-26T00:10:57;96231.00;;;7.72;60.58
46392;BME280;32098;49.448;7.904;2024-02-26T00:13:23;96242.47;;;7.78;59.50
46392;BME280;32098;49.448;7.904;2024-02-26T00:15:50;96243.44;;;7.72;58.67
46392;BME280;32098;49.448;7.904;2024-02-26T00:18:16;96229.16;;;7.73;58.97
46392;BME280;32098;49.448;7.904;2024-02-26T00:20:43;96227.63;;;7.77;59.65
46392;BME280;32098;49.448;7.904;2024-02-26T00:23:10;96232.25;;;7.65;58.94
46392;BME280;32098;49.448;7.904;2024-02-26T00:25:36;96237.53;;;7.65;59.15
46392;BME280;32098;49.448;7.904;2024-02-26T00:28:04;96249.25;;;7.69;59.61
46392;BME280;32098;49.448;7.904;2024-02-26T00:30:31;96233.50;;;7.79;58.91
46392;BME280;32098;49.448;7.904;2024-02-26T00:32:58;96239.16;;;7.66;59.41
46392;BME280;32098;49.448;7.904;2024-02-26T00:35:25;96244.50;;;7.71;59.40
46392;BME280;32098;49.448;7.904;2024-02-26T00:37:52;96246.41;;;7.75;59.20
46392;BME280;32098;49.448;7.904;2024-02-26T00:40:22;96261.28;;;7.76;59.38
46392;BME280;32098;49.448;7.904;2024-02-26T00:42:50;96241.06;;;7.70;60.50
46392;BME280;32098;49.448;7.904;2024-02-26T00:45:17;96250.97;;;7.80;61.55
46392;BME280;32098;49.448;7.904;2024-02-26T00:47:44;96244.09;;;7.79;61.93
46392;BME280;32098;49.448;7.904;2024-02-26T00:50:37;96249.31;;;7.74;61.48
46392;BME280;32098;49.448;7.904;2024-02-26T00:53:04;96228.06;;;7.69;62.80
46392;BME280;32098;49.448;7.904;2024-02-26T00:55:30;96250.41;;;7.78;61.98
46392;BME280;32098;49.448;7.904;2024-02-26T00:57:57;96251.38;;;7.72;62.63
46392;BME280;32098;49.448;7.904;2024-02-26T01:00:23;96243.66;;;7.65;62.86
46392;BME280;32098;49.448;7.904;2024-02-26T01:02:50;96251.16;;;7.73;63.73
46392;BME280;32098;49.448;7.904;2024-02-26T01:05:17;96254.44;;;7.59;64.24
46392;BME280;32098;49.448;7.904;2024-02-26T01:07:44;96253.81;;;7.52;65.71
46392;BME280;32098;49.448;7.904;2024-02-26T01:10:10;96252.53;;;7.54;65.94
46392;BME280;32098;49.448;7.904;2024-02-26T01:12:38;96245.69;;;7.58;66.54
46392;BME280;32098;49.448;7.904;2024-02-26T01:15:05;96253.31;;;7.55;66.33
46392;BME280;32098;49.448;7.904;2024-02-26T01:17:33;96252.19;;;7.51;66.32
46392;BME280;32098;49.448;7.904;2024-02-26T01:19:59;96247.38;;;7.48;66.62
46392;BME280;32098;49.448;7.904;2024-02-26T01:22:26;96249.00;;;7.49;68.38
46392;BME280;32098;49.448;7.904;2024-02-26T01:24:52;96253.16;;;7.45;69.45
46392;BME280;32098;49.448;7.904;2024-02-26T01:27:19;96248.75;;;7.28;69.18
46392;BME280;32098;49.448;7.904;2024-02-26T01:29:46;96244.06;;;7.35;69.76
46392;BME280;32098;49.448;7.904;2024-02-26T01:32:12;96246.16;;;7.33;70.34
46392;BME280;32098;49.448;7.904;2024-02-26T01:34:39;96247.19;;;7.32;69.79
46392;BME280;32098;49.448;7.904;2024-02-26T01:37:07;96249.84;;;7.32;71.22
46392;BME280;32098;49.448;7.904;2024-02-26T01:39:33;96255.63;;;7.29;72.01
46392;BME280;32098;49.448;7.904;2024-02-26T01:42:00;96242.28;;;7.24;72.88
46392;BME280;32098;49.448;7.904;2024-02-26T01:44:28;96222.44;;;7.05;72.99
46392;BME280;32098;49.448;7.904;2024-02-26T01:46:55;96242.72;;;7.16;74.44
46392;BME280;32098;49.448;7.904;2024-02-26T01:49:22;96233.34;;;6.92;75.25
46392;BME280;32098;49.448;7.904;2024-02-26T01:51:50;96230.50;;;6.94;75.63
46392;BME280;32098;49.448;7.904;2024-02-26T01:54:16;96243.38;;;6.90;75.28
46392;BME280;32098;49.448;7.904;2024-02-26T01:56:44;96212.25;;;6.59;75.68
46392;BME280;32098;49.448;7.904;2024-02-26T01:59:14;96242.19;;;6.81;76.53
46392;BME280;32098;49.448;7.904;2024-02-26T02:01:44;96242.97;;;6.82;77.75
46392;BME280;32098;49.448;7.904;2024-02-26T02:04:14;96249.47;;;6.91;77.95
46392;BME280;32098;49.448;7.904;2024-02-26T02:06:45;96251.78;;;6.87;78.22
46392;BME280;32098;49.448;7.904;2024-02-26T02:09:12;96258.63;;;6.83;78.79
46392;BME280;32098;49.448;7.904;2024-02-26T02:11:41;96240.91;;;6.84;79.04
46392;BME280;32098;49.448;7.904;2024-02-26T02:14:08;96257.47;;;6.79;78.81
46392;BME280;32098;49.448;7.904;2024-02-26T02:16:35;96256.84;;;6.89;78.24
46392;BME280;32098;49.448;7.904;2024-02-26T02:19:02;96249.06;;;6.82;78.49
46392;BME280;32098;49.448;7.904;2024-02-26T02:21:28;96250.44;;;6.85;78.08
46392;BME280;32098;49.448;7.904;2024-02-26T02:23:55;96252.59;;;6.88;78.41
46392;BME280;32098;49.448;7.904;2024-02-26T02:26:23;96253.00;;;6.80;78.18
46392;BME280;32098;49.448;7.904;2024-02-26T02:28:50;96261.09;;;6.90;77.39
46392;BME280;32098;49.448;7.904;2024-02-26T02:31:17;96254.50;;;6.92;77.25
46392;BME280;32098;49.448;7.904;2024-02-26T02:33:44;96259.81;;;6.92;77.66
46392;BME280;32098;49.448;7.904;2024-02-26T02:36:11;96261.41;;;6.93;78.04
46392;BME280;32098;49.448;7.904;2024-02-26T02:38:38;96264.28;;;6.92;78.46
46392;BME280;32098;49.448;7.904;2024-02-26T02:41:14;96269.28;;;6.88;79.43
46392;BME280;32098;49.448;7.904;2024-02-26T02:43:41;96252.34;;;6.89;80.24
46392;BME280;32098;49.448;7.904;2024-02-26T02:46:07;96246.97;;;6.84;79.74
46392;BME280;32098;49.448;7.904;2024-02-26T02:48:34;96258.38;;;6.85;79.72
46392;BME280;32098;49.448;7.904;2024-02-26T02:51:01;96260.63;;;6.76;80.41
46392;BME280;32098;49.448;7.904;2024-02-26T02:53:27;96253.56;;;6.65;82.08
46392;BME280;32098;49.448;7.904;2024-02-26T02:55:54;96252.91;;;6.58;82.22
46392;BME280;32098;49.448;7.904;2024-02-26T02:58:20;96255.47;;;6.53;83.83
46392;BME280;32098;49.448;7.904;2024-02-26T03:00:47;96251.56;;;6.55;84.35
46392;BME280;32098;49.448;7.904;2024-02-26T03:03:14;96242.53;;;6.51;84.00
46392;BME280;32098;49.448;7.904;2024-02-26T03:05:40;96243.88;;;6.54;83.96
46392;BME280;32098;49.448;7.904;2024-02-26T03:08:10;96235.91;;;6.37;84.94
46392;BME280;32098;49.448;7.904;2024-02-26T03:11:01;96245.38;;;6.33;85.33
46392;BME280;32098;49.448;7.904;2024-02-26T03:13:28;96242.72;;;6.33;85.07
46392;BME280;32098;49.448;7.904;2024-02-26T03:15:55;96248.75;;;6.29;86.25
46392;BME280;32098;49.448;7.904;2024-02-26T03:18:23;96235.63;;;6.34;86.00
46392;BME280;32098;49.448;7.904;2024-02-26T03:20:50;96232.28;;;6.27;86.34
46392;BME280;32098;49.448;7.904;2024-02-26T03:23:17;96240.03;;;6.17;86.27
46392;BME280;32098;49.448;7.904;2024-02-26T03:25:44;96240.84;;;6.17;86.76
46392;BME280;32098;49.448;7.904;2024-02-26T03:28:12;96232.63;;;6.14;86.92
46392;BME280;32098;49.448;7.904;2024-02-26T03:30:39;96229.47;;;6.17;87.13
46392;BME280;32098;49.448;7.904;2024-02-26T03:33:05;96228.19;;;6.19;87.01
46392;BME280;32098;49.448;7.904;2024-02-26T03:35:32;96227.91;;;6.16;87.20
46392;BME280;32098;49.448;7.904;2024-02-26T03:38:03;96217.97;;;6.23;87.64
46392;BME280;32098;49.448;7.904;2024-02-26T03:40:29;96221.97;;;6.08;87.15
46392;BME280;32098;49.448;7.904;2024-02-26T03:42:56;96219.22;;;6.03;87.56
46392;BME280;32098;49.448;7.904;2024-02-26T03:45:26;96228.19;;;6.19;88.44
46392;BME280;32098;49.448;7.904;2024-02-26T03:47:53;96233.66;;;6.13;87.98
46392;BME280;32098;49.448;7.904;2024-02-26T03:50:20;96231.09;;;6.18;87.70
46392;BME280;32098;49.448;7.904;2024-02-26T03:52:47;96222.28;;;6.12;88.00
46392;BME280;32098;49.448;7.904;2024-02-26T03:55:14;96230.19;;;6.12;88.58
46392;BME280;32098;49.448;7.904;2024-02-26T03:57:41;96223.09;;;6.13;88.78
46392;BME280;32098;49.448;7.904;2024-02-26T04:00:08;96224.34;;;6.10;88.90
46392;BME280;32098;49.448;7.904;2024-02-26T04:02:38;96222.00;;;5.97;90.06
46392;BME280;32098;49.448;7.904;2024-02-26T04:05:05;96221.06;;;6.03;89.97
46392;BME280;32098;49.448;7.904;2024-02-26T04:07:31;96217.06;;;6.00;89.41
46392;BME280;32098;49.448;7.904;2024-02-26T04:09:58;96221.47;;;6.11;88.84
46392;BME280;32098;49.448;7.904;2024-02-26T04:12:28;96217.16;;;6.05;89.57
46392;BME280;32098;49.448;7.904;2024-02-26T04:14:56;96210.44;;;6.15;88.88
46392;BME280;32098;49.448;7.904;2024-02-26T04:17:23;96213.63;;;6.17;88.90
46392;BME280;32098;49.448;7.904;2024-02-26T04:19:51;96215.00;;;6.19;88.64
46392;BME280;32098;49.448;7.904;2024-02-26T04:22:18;96216.06;;;6.18;88.78
46392;BME280;32098;49.448;7.904;2024-02-26T04:24:45;96203.06;;;6.17;88.92
46392;BME280;32098;49.448;7.904;2024-02-26T04:27:11;96203.31;;;6.15;89.11
46392;BME280;32098;49.448;7.904;2024-02-26T04:29:38;96211.56;;;6.19;88.99
46392;BME280;32098;49.448;7.904;2024-02-26T04:32:05;96217.47;;;6.09;88.54
46392;BME280;32098;49.448;7.904;2024-02-26T04:34:32;96214.59;;;6.10;89.40
46392;BME280;32098;49.448;7.904;2024-02-26T04:36:58;96220.50;;;6.01;89.82
46392;BME280;32098;49.448;7.904;2024-02-26T04:39:25;96217.53;;;5.97;90.19
46392;BME280;32098;49.448;7.904;2024-02-26T04:41:52;96223.00;;;6.07;90.04
46392;BME280;32098;49.448;7.904;2024-02-26T04:44:19;96215.22;;;6.01;90.23
46392;BME280;32098;49.448;7.904;2024-02-26T04:46:46;96217.97;;;6.06;91.08
46392;BME280;32098;49.448;7.904;2024-02-26T04:49:13;96217.63;;;6.02;90.21
46392;BME280;32098;49.448;7.904;2024-02-26T04:51:40;96219.03;;;5.93;90.87
46392;BME280;32098;49.448;7.904;2024-02-26T04:54:07;96225.78;;;6.01;91.13
46392;BME280;32098;49.448;7.904;2024-02-26T04:56:34;96223.53;;;5.93;90.67
46392;BME280;32098;49.448;7.904;2024-02-26T04:59:00;96223.28;;;5.94;91.11
46392;BME280;32098;49.448;7.904;2024-02-26T05:01:27;96224.97;;;6.00;90.72
46392;BME280;32098;49.448;7.904;2024-02-26T05:03:54;96223.28;;;5.94;90.94
46392;BME280;32098;49.448;7.904;2024-02-26T05:06:24;96227.84;;;5.99;91.51
46392;BME280;32098;49.448;7.904;2024-02-26T05:08:51;96232.91;;;6.00;91.18
46392;BME280;32098;49.448;7.904;2024-02-26T05:11:18;96232.09;;;6.00;90.88
46392;BME280;32098;49.448;7.904;2024-02-26T05:13:45;96226.72;;;5.95;91.30
46392;BME280;32098;49.448;7.904;2024-02-26T05:16:11;96227.53;;;5.95;91.69
46392;BME280;32098;49.448;7.904;2024-02-26T05:18:38;96230.28;;;5.89;91.26
46392;BME280;32098;49.448;7.904;2024-02-26T05:21:05;96227.06;;;5.98;91.98
46392;BME280;32098;49.448;7.904;2024-02-26T05:23:32;96236.44;;;6.06;90.98
46392;BME280;32098;49.448;7.904;2024-02-26T05:25:59;96241.94;;;6.04;90.94
46392;BME280;32098;49.448;7.904;2024-02-26T05:28:26;96237.63;;;5.98;91.34
46392;BME280;32098;49.448;7.904;2024-02-26T05:30:52;96244.47;;;6.11;90.99
46392;BME280;32098;49.448;7.904;2024-02-26T05:33:19;96244.47;;;6.11;90.45
46392;BME280;32098;49.448;7.904;2024-02-26T05:35:46;96250.13;;;6.20;90.87
46392;BME280;32098;49.448;7.904;2024-02-26T05:38:13;96248.88;;;6.22;90.40
46392;BME280;32098;49.448;7.904;2024-02-26T05:40:39;96247.59;;;6.25;90.24
46392;BME280;32098;49.448;7.904;2024-02-26T05:43:06;96245.31;;;6.17;90.12
46392;BME280;32098;49.448;7.904;2024-02-26T05:45:33;96246.31;;;6.27;89.70
46392;BME280;32098;49.448;7.904;2024-02-26T05:48:00;96261.25;;;6.22;89.90
46392;BME280;32098;49.448;7.904;2024-02-26T05:50:27;96258.72;;;6.27;89.99
46392;BME280;32098;49.448;7.904;2024-02-26T05:52:55;96258.81;;;6.32;89.91
46392;BME280;32098;49.448;7.904;2024-02-26T05:55:22;96263.66;;;7.01;100.00
46392;BME280;32098;49.448;7.904;2024-02-26T05:57:48;96261.31;;;7.60;100.00
46392;BME280;32098;49.448;7.904;2024-02-26T06:00:16;96262.16;;;7.87;100.00
46392;BME280;32098;49.448;7.904;2024-02-26T06:02:43;96261.91;;;8.10;97.79
46392;BME280;32098;49.448;7.904;2024-02-26T06:05:10;96267.78;;;7.90;88.49
46392;BME280;32098;49.448;7.904;2024-02-26T06:07:37;96270.44;;;7.69;84.03
46392;BME280;32098;49.448;7.904;2024-02-26T06:10:04;96283.41;;;7.49;83.04
46392;BME280;32098;49.448;7.904;2024-02-26T06:12:31;96284.31;;;7.37;83.60
46392;BME280;32098;49.448;7.904;2024-02-26T06:14:59;96293.47;;;7.30;84.67
46392;BME280;32098;49.448;7.904;2024-02-26T06:17:27;96293.75;;;7.17;84.62
46392;BME280;32098;49.448;7.904;2024-02-26T06:19:54;96294.69;;;7.06;85.20
46392;BME280;32098;49.448;7.904;2024-02-26T06:22:21;96302.06;;;7.04;85.51
46392;BME280;32098;49.448;7.904;2024-02-26T06:24:48;96305.91;;;6.96;86.09
46392;BME280;32098;49.448;7.904;2024-02-26T06:27:14;96308.53;;;6.96;85.66
46392;BME280;32098;49.448;7.904;2024-02-26T06:29:41;96312.06;;;6.85;86.27
46392;BME280;32098;49.448;7.904;2024-02-26T06:32:08;96307.06;;;6.72;87.22
46392;BME280;32098;49.448;7.904;2024-02-26T06:34:34;96320.88;;;6.74;87.77
46392;BME280;32098;49.448;7.904;2024-02-26T06:37:01;96326.63;;;6.71;87.99
46392;BME280;32098;49.448;7.904;2024-02-26T06:39:30;96319.00;;;6.58;87.85
46392;BME280;32098;49.448;7.904;2024-02-26T06:41:56;96318.19;;;6.57;88.62
46392;BME280;32098;49.448;7.904;2024-02-26T06:44:27;96328.84;;;6.62;89.04
46392;BME280;32098;49.448;7.904;2024-02-26T06:51:00;96319.25;;;6.56;89.38
46392;BME280;32098;49.448;7.904;2024-02-26T06:53:26;96328.03;;;6.62;89.56
46392;BME280;32098;49.448;7.904;2024-02-26T06:55:53;96324.84;;;6.60;89.36
46392;BME280;32098;49.448;7.904;2024-02-26T06:58:20;96325.00;;;6.53;89.74
46392;BME280;32098;49.448;7.904;2024-02-26T07:00:46;96329.47;;;6.53;90.02
46392;BME280;32098;49.448;7.904;2024-02-26T07:03:14;96329.31;;;6.43;90.10
46392;BME280;32098;49.448;7.904;2024-02-26T07:05:41;96334.69;;;6.48;90.55
46392;BME280;32098;49.448;7.904;2024-02-26T07:08:07;96298.78;;;6.35;90.42
46392;BME280;32098;49.448;7.904;2024-02-26T07:10:34;96332.78;;;6.60;89.96
46392;BME280;32098;49.448;7.904;2024-02-26T07:13:00;96333.16;;;6.52;90.67
46392;BME280;32098;49.448;7.904;2024-02-26T07:15:27;96336.28;;;6.49;91.43
46392;BME280;32098;49.448;7.904;2024-02-26T07:17:54;96341.69;;;6.54;91.18
46392;BME280;32098;49.448;7.904;2024-02-26T07:20:21;96346.28;;;6.47;91.91
46392;BME280;32098;49.448;7.904;2024-02-26T07:22:47;96351.25;;;6.43;92.04
46392;BME280;32098;49.448;7.904;2024-02-26T07:25:14;96355.38;;;6.39;92.68
46392;BME280;32098;49.448;7.904;2024-02-26T07:27:42;96360.34;;;6.36;92.95
46392;BME280;32098;49.448;7.904;2024-02-26T07:30:09;96354.47;;;6.45;92.86
46392;BME280;32098;49.448;7.904;2024-02-26T07:32:36;96358.38;;;6.43;92.55
46392;BME280;32098;49.448;7.904;2024-02-26T07:35:03;96362.63;;;6.44;93.13
46392;BME280;32098;49.448;7.904;2024-02-26T07:37:31;96364.13;;;6.40;93.00
46392;BME280;32098;49.448;7.904;2024-02-26T07:39:57;96369.09;;;6.25;94.29
46392;BME280;32098;49.448;7.904;2024-02-26T07:42:24;96367.72;;;6.34;94.10
46392;BME280;32098;49.448;7.904;2024-02-26T07:44:51;96368.84;;;6.38;94.17
46392;BME280;32098;49.448;7.904;2024-02-26T07:47:19;96361.00;;;6.43;93.82
46392;BME280;32098;49.448;7.904;2024-02-26T07:49:45;96365.72;;;6.41;94.86
46392;BME280;32098;49.448;7.904;2024-02-26T07:52:12;96366.75;;;6.40;94.87
46392;BME280;32098;49.448;7.904;2024-02-26T07:54:39;96368.38;;;6.41;94.34
46392;BME280;32098;49.448;7.904;2024-02-26T07:57:05;96373.84;;;6.51;94.13
46392;BME280;32098;49.448;7.904;2024-02-26T07:59:32;96376.69;;;6.61;94.20
46392;BME280;32098;49.448;7.904;2024-02-26T08:02:00;96384.06;;;6.59;93.60
46392;BME280;32098;49.448;7.904;2024-02-26T08:04:30;96374.84;;;6.61;93.76
46392;BME280;32098;49.448;7.904;2024-02-26T08:06:56;96387.66;;;6.69;93.59
46392;BME280;32098;49.448;7.904;2024-02-26T08:09:23;96388.56;;;6.75;94.40
46392;BME280;32098;49.448;7.904;2024-02-26T08:11:50;96396.50;;;6.75;94.16
46392;BME280;32098;49.448;7.904;2024-02-26T08:14:16;96386.81;;;6.81;93.98
46392;BME280;32098;49.448;7.904;2024-02-26T08:16:43;96388.28;;;6.88;93.96
46392;BME280;32098;49.448;7.904;2024-02-26T08:19:09;96396.38;;;6.98;93.71
46392;BME280;32098;49.448;7.904;2024-02-26T08:21:38;96404.06;;;7.00;92.60
46392;BME280;32098;49.448;7.904;2024-02-26T08:24:05;96400.72;;;7.04;92.13
46392;BME280;32098;49.448;7.904;2024-02-26T08:26:31;96402.66;;;7.09;92.57
46392;BME280;32098;49.448;7.904;2024-02-26T08:28:58;96399.59;;;7.00;92.38
46392;BME280;32098;49.448;7.904;2024-02-26T08:31:25;96406.50;;;7.01;91.54
46392;BME280;32098;49.448;7.904;2024-02-26T08:33:51;96389.56;;;6.86;92.62
46392;BME280;32098;49.448;7.904;2024-02-26T08:36:18;96395.31;;;6.99;93.46
46392;BME280;32098;49.448;7.904;2024-02-26T08:38:45;96393.66;;;7.10;93.07
46392;BME280;32098;49.448;7.904;2024-02-26T08:41:12;96395.41;;;7.04;92.73
46392;BME280;32098;49.448;7.904;2024-02-26T08:43:39;96393.19;;;6.96;93.03
46392;BME280;32098;49.448;7.904;2024-02-26T08:46:09;96406.88;;;7.10;92.37
46392;BME280;32098;49.448;7.904;2024-02-26T08:48:36;96416.28;;;7.17;92.16
46392;BME280;32098;49.448;7.904;2024-02-26T08:51:09;96419.00;;;7.22;92.63
46392;BME280;32098;49.448;7.904;2024-02-26T08:53:36;96414.34;;;7.13;92.55
46392;BME280;32098;49.448;7.904;2024-02-26T08:56:09;96415.47;;;7.17;92.61
46392;BME280;32098;49.448;7.904;2024-02-26T08:58:38;96420.75;;;7.28;93.14
46392;BME280;32098;49.448;7.904;2024-02-26T09:01:04;96420.50;;;7.30;92.69
46392;BME280;32098;49.448;7.904;2024-02-26T09:03:31;96416.56;;;7.32;92.35
46392;BME280;32098;49.448;7.904;2024-02-26T09:05:58;96420.00;;;7.33;92.14
46392;BME280;32098;49.448;7.904;2024-02-26T09:08:24;96415.63;;;7.38;92.21
46392;BME280;32098;49.448;7.904;2024-02-26T09:10:51;96414.56;;;7.56;92.66
46392;BME280;32098;49.448;7.904;2024-02-26T09:13:18;96412.56;;;7.63;91.85
46392;BME280;32098;49.448;7.904;2024-02-26T09:15:45;96417.44;;;7.71;91.80
46392;BME280;32098;49.448;7.904;2024-02-26T09:18:12;96415.16;;;7.80;91.70
46392;BME280;32098;49.448;7.904;2024-02-26T09:20:39;96423.09;;;7.96;91.47
46392;BME280;32098;49.448;7.904;2024-02-26T09:23:06;96415.78;;;8.03;90.19
46392;BME280;32098;49.448;7.904;2024-02-26T09:25:33;96421.56;;;8.22;90.26
46392;BME280;32098;49.448;7.904;2024-02-26T09:28:03;96395.88;;;8.01;89.18
46392;BME280;32098;49.448;7.904;2024-02-26T09:30:30;96437.19;;;8.40;89.45
46392;BME280;32098;49.448;7.904;2024-02-26T09:32:56;96436.94;;;8.63;88.16
46392;BME280;32098;49.448;7.904;2024-02-26T09:35:23;96433.84;;;8.72;88.12
46392;BME280;32098;49.448;7.904;2024-02-26T09:37:50;96437.78;;;8.91;86.68
46392;BME280;32098;49.448;7.904;2024-02-26T09:40:17;96442.59;;;8.94;86.10
46392;BME280;32098;49.448;7.904;2024-02-26T09:42:45;96449.03;;;9.03;85.71
46392;BME280;32098;49.448;7.904;2024-02-26T09:45:18;96448.81;;;9.04;85.96
46392;BME280;32098;49.448;7.904;2024-02-26T09:47:48;96443.41;;;8.73;85.78
46392;BME280;32098;49.448;7.904;2024-02-26T09:50:17;96446.47;;;8.64;86.48
46392;BME280;32098;49.448;7.904;2024-02-26T09:52:44;96448.09;;;8.65;86.49
46392;BME280;32098;49.448;7.904;2024-02-26T09:55:11;96436.69;;;8.65;86.52
46392;BME280;32098;49.448;7.904;2024-02-26T09:57:41;96453.47;;;8.71;85.94
46392;BME280;32098;49.448;7.904;2024-02-26T10:00:16;96456.94;;;8.98;86.26
46392;BME280;32098;49.448;7.904;2024-02-26T10:02:48;96463.88;;;8.99;85.26
46392;BME280;32098;49.448;7.904;2024-02-26T10:05:18;96450.16;;;9.07;85.06
46392;BME280;32098;49.448;7.904;2024-02-26T10:07:49;96445.31;;;9.25;84.82
46392;BME280;32098;49.448;7.904;2024-02-26T10:10:17;96443.78;;;9.35;83.96
46392;BME280;32098;49.448;7.904;2024-02-26T10:12:44;96445.13;;;9.32;83.95
46392;BME280;32098;49.448;7.904;2024-02-26T10:15:11;96451.09;;;9.49;83.23
46392;BME280;32098;49.448;7.904;2024-02-26T10:17:38;96452.66;;;9.45;81.33
46392;BME280;32098;49.448;7.904;2024-02-26T10:20:18;96454.22;;;9.41;82.16
46392;BME280;32098;49.448;7.904;2024-02-26T10:22:48;96453.72;;;9.44;81.59
46392;BME280;32098;49.448;7.904;2024-02-26T10:25:15;96453.41;;;9.41;81.99
46392;BME280;32098;49.448;7.904;2024-02-26T10:27:42;96415.03;;;9.21;81.08
46392;BME280;32098;49.448;7.904;2024-02-26T10:30:20;96458.50;;;9.47;80.87
46392;BME280;32098;49.448;7.904;2024-02-26T10:32:49;96470.66;;;9.38;80.93
46392;BME280;32098;49.448;7.904;2024-02-26T10:35:17;96472.44;;;9.32;80.58
46392;BME280;32098;49.448;7.904;2024-02-26T10:37:48;96481.75;;;9.35;80.71
46392;BME280;32098;49.448;7.904;2024-02-26T10:40:16;96485.66;;;9.27;80.31
46392;BME280;32098;49.448;7.904;2024-02-26T10:42:43;96484.50;;;9.45;80.02
46392;BME280;32098;49.448;7.904;2024-02-26T10:45:11;96487.66;;;9.42;80.25
46392;BME280;32098;49.448;7.904;2024-02-26T10:47:40;96486.09;;;9.41;79.92
46392;BME280;32098;49.448;7.904;2024-02-26T10:50:07;96487.44;;;9.44;79.84
46392;BME280;32098;49.448;7.904;2024-02-26T10:52:36;96482.31;;;9.64;79.22
46392;BME280;32098;49.448;7.904;2024-02-26T10:55:05;96487.41;;;9.70;78.08
46392;BME280;32098;49.448;7.904;2024-02-26T10:57:36;96496.63;;;9.94;79.24
46392;BME280;32098;49.448;7.904;2024-02-26T11:00:07;96484.47;;;10.04;77.71
46392;BME280;32098;49.448;7.904;2024-02-26T11:06:03;96476.88;;;9.85;76.19
46392;BME280;32098;49.448;7.904;2024-02-26T11:08:31;96484.50;;;10.09;76.25
46392;BME280;32098;49.448;7.904;2024-02-26T11:10:59;96480.78;;;10.10;75.29
46392;BME280;32098;49.448;7.904;2024-02-26T11:13:28;96482.25;;;10.37;75.94
46392;BME280;32098;49.448;7.904;2024-02-26T11:15:58;96500.41;;;10.45;74.91
46392;BME280;32098;49.448;7.904;2024-02-26T11:18:27;96492.47;;;10.55;73.68
46392;BME280;32098;49.448;7.904;2024-02-26T11:20:54;96498.59;;;10.56;73.02
46392;BME280;32098;49.448;7.904;2024-02-26T11:23:24;96505.19;;;10.43;73.69
46392;BME280;32098;49.448;7.904;2024-02-26T11:25:52;96519.03;;;10.87;74.08
46392;BME280;32098;49.448;7.904;2024-02-26T11:28:21;96515.38;;;11.18;73.25
46392;BME280;32098;49.448;7.904;2024-02-26T11:30:51;96512.16;;;11.06;71.80
46392;BME280;32098;49.448;7.904;2024-02-26T11:33:19;96511.69;;;11.30;71.63
46392;BME280;32098;49.448;7.904;2024-02-26T11:35:46;96503.16;;;11.38;70.89
46392;BME280;32098;49.448;7.904;2024-02-26T11:38:25;96496.78;;;11.39;69.67
46392;BME280;32098;49.448;7.904;2024-02-26T11:40:53;96492.50;;;11.33;70.33
46392;BME280;32098;49.448;7.904;2024-02-26T11:43:51;96500.53;;;11.43;69.79
46392;BME280;32098;49.448;7.904;2024-02-26T11:46:33;96504.50;;;11.35;69.39
46392;BME280;32098;49.448;7.904;2024-02-26T11:49:35;96501.03;;;11.30;69.95
46392;BME280;32098;49.448;7.904;2024-02-26T11:51:55;96500.53;;;11.48;70.61
46392;BME280;32098;49.448;7.904;2024-02-26T11:57:27;96511.72;;;11.35;69.84
46392;BME280;32098;49.448;7.904;2024-02-26T11:59:57;96490.41;;;11.35;69.63
46392;BME280;32098;49.448;7.904;2024-02-26T12:05:33;96516.44;;;11.17;69.79
46392;BME280;32098;49.448;7.904;2024-02-26T12:08:03;96527.34;;;11.11;70.02
46392;BME280;32098;49.448;7.904;2024-02-26T12:10:36;96512.72;;;11.18;69.96
46392;BME280;32098;49.448;7.904;2024-02-26T12:13:08;96521.03;;;11.32;69.48
46392;BME280;32098;49.448;7.904;2024-02-26T12:15:39;96513.28;;;11.26;68.90
46392;BME280;32098;49.448;7.904;2024-02-26T12:18:07;96512.75;;;11.29;69.55
46392;BME280;32098;49.448;7.904;2024-02-26T12:20:37;96512.25;;;11.37;69.77
46392;BME280;32098;49.448;7.904;2024-02-26T12:23:04;96511.19;;;11.48;69.16
46392;BME280;32098;49.448;7.904;2024-02-26T12:25:31;96511.97;;;11.38;68.35
46392;BME280;32098;49.448;7.904;2024-02-26T12:27:59;96514.94;;;11.47;68.71
46392;BME280;32098;49.448;7.904;2024-02-26T12:30:26;96494.13;;;11.44;67.90
46392;BME280;32098;49.448;7.904;2024-02-26T12:33:00;96510.66;;;11.51;68.54
46392;BME280;32098;49.448;7.904;2024-02-26T12:35:28;96515.97;;;11.46;68.85
46392;BME280;32098;49.448;7.904;2024-02-26T12:37:55;96517.63;;;11.57;68.75
46392;BME280;32098;49.448;7.904;2024-02-26T12:40:22;96522.66;;;11.58;67.54
46392;BME280;32098;49.448;7.904;2024-02-26T12:42:48;96522.44;;;11.65;67.95
46392;BME280;32098;49.448;7.904;2024-02-26T12:45:15;96517.09;;;11.65;67.55
46392;BME280;32098;49.448;7.904;2024-02-26T12:47:43;96525.09;;;11.70;68.32
46392;BME280;32098;49.448;7.904;2024-02-26T12:50:12;96520.31;;;11.82;68.18
46392;BME280;32098;49.448;7.904;2024-02-26T12:52:42;96523.50;;;11.79;69.61
46392;BME280;32098;49.448;7.904;2024-02-26T12:55:13;96528.03;;;11.78;68.60
46392;BME280;32098;49.448;7.904;2024-02-26T12:57:41;96530.44;;;11.80;68.96
46392;BME280;32098;49.448;7.904;2024-02-26T13:00:12;96537.59;;;11.59;68.56
46392;BME280;32098;49.448;7.904;2024-02-26T13:02:42;96536.22;;;11.32;69.31
46392;BME280;32098;49.448;7.904;2024-02-26T13:05:13;96536.75;;;11.44;69.85
46392;BME280;32098;49.448;7.904;2024-02-26T13:07:45;96549.56;;;11.47;71.06
46392;BME280;32098;49.448;7.904;2024-02-26T13:10:13;96546.38;;;11.45;70.42
46392;BME280;32098;49.448;7.904;2024-02-26T13:12:44;96547.16;;;11.45;70.98
46392;BME280;32098;49.448;7.904;2024-02-26T13:15:19;96555.44;;;11.49;70.83
46392;BME280;32098;49.448;7.904;2024-02-26T13:17:47;96558.59;;;11.36;70.55
46392;BME280;32098;49.448;7.904;2024-02-26T13:20:30;96565.50;;;11.32;70.67
46392;BME280;32098;49.448;7.904;2024-02-26T13:23:04;96562.56;;;11.33;70.44
46392;BME280;32098;49.448;7.904;2024-02-26T13:25:33;96570.59;;;11.43;70.39
46392;BME280;32098;49.448;7.904;2024-02-26T13:30:36;96571.38;;;11.39;71.13